Terminal Aerodrome Forecast
Issued by NWS

Home | Current Version | Previous Version | Text Only | Print | Product List | Glossary On
Versions: 1 2 3 4 5 6 7 8 9 10 11 12 13 14 15 16 17 18 19 20 21
000
FTUS43 KDLH 191400 AAC
TAFBRD
TAF AMD
KBRD 191443Z 1915/2012 14006KT 1 1/2SM -RA BR OVC006
     FM191600 17008KT 3SM -DZ BR OVC008
     FM191800 26011KT P6SM VCSH BKN015 OVC025
      TEMPO 1918/1920 6SM -SHRA SCT015 OVC025
     FM192000 30013G20KT P6SM VCSH BKN025
     FM192200 30014G21KT P6SM SCT025
     FM200200 31008KT P6SM SCT080=

USA.gov is the U.S. government's official web portal to all federal, state and local government web resources and services.